createdAt,value
2023-02-19T00:00:02.552Z,25.52
2023-02-19T00:05:04.473Z,27.60
2023-02-19T00:10:06.465Z,24.92
2023-02-19T00:15:08.104Z,22.55
2023-02-19T00:20:10.039Z,27.75
2023-02-19T00:25:11.644Z,24.92
2023-02-19T00:30:13.665Z,26.02
2023-02-19T00:35:15.396Z,30.30
2023-02-19T00:40:17.276Z,25.38
2023-02-19T00:45:19.238Z,31.90
2023-02-19T00:50:20.901Z,29.80
2023-02-19T00:55:22.604Z,32.30
2023-02-19T01:00:24.311Z,26.40
2023-02-19T01:05:25.999Z,29.98
2023-02-19T01:10:27.738Z,24.95
2023-02-19T01:15:29.359Z,26.42
2023-02-19T01:20:31.369Z,25.65
2023-02-19T01:25:33.065Z,22.50
2023-02-19T01:30:37.573Z,23.98
2023-02-19T01:35:39.856Z,23.05
2023-02-19T01:40:41.565Z,21.35
2023-02-19T01:45:46.643Z,21.08
2023-02-19T01:50:52.816Z,21.85
2023-02-19T01:55:58.815Z,26.17
2023-02-19T02:01:03.119Z,26.30
2023-02-19T02:06:08.116Z,21.90
2023-02-19T02:11:10.153Z,23.17
2023-02-19T02:16:30.139Z,24.10
2023-02-19T02:22:01.791Z,24.90
2023-02-19T02:27:35.715Z,28.98
2023-02-19T02:32:57.465Z,29.67
2023-02-19T02:38:03.090Z,26.75
2023-02-19T02:43:04.769Z,26.73
2023-02-19T02:48:43.534Z,25.40
2023-02-19T02:54:09.931Z,26.23
2023-02-19T02:59:13.756Z,22.25
2023-02-19T03:04:30.129Z,19.42
2023-02-19T03:09:43.173Z,20.88
2023-02-19T03:15:09.597Z,24.27
2023-02-19T03:20:16.126Z,24.52
2023-02-19T03:25:40.559Z,21.60
2023-02-19T03:30:47.249Z,26.30
2023-02-19T03:41:31.225Z,21.88
2023-02-19T03:47:05.586Z,23.33
2023-02-19T03:52:16.627Z,24.50
2023-02-19T03:57:24.087Z,22.48
2023-02-19T04:02:38.251Z,22.05
2023-02-19T04:07:45.710Z,20.00
2023-02-19T04:13:11.539Z,23.25
2023-02-19T04:18:17.916Z,21.42
2023-02-19T04:23:24.080Z,25.67
2023-02-19T04:28:25.949Z,27.83
2023-02-19T04:33:27.680Z,24.75
2023-02-19T04:38:29.376Z,21.23
2023-02-19T04:43:31.061Z,24.10
2023-02-19T04:48:32.744Z,20.30
2023-02-19T04:53:35.015Z,18.90
2023-02-19T04:58:36.994Z,19.08
2023-02-19T05:03:39.077Z,21.52
2023-02-19T05:08:50.608Z,21.95
2023-02-19T05:13:52.310Z,19.33
2023-02-19T05:18:54.238Z,21.00
2023-02-19T05:23:55.952Z,20.52
2023-02-19T05:28:57.678Z,21.95
2023-02-19T05:33:59.891Z,23.40
2023-02-19T05:39:01.580Z,24.20
2023-02-19T05:44:03.218Z,28.88
2023-02-19T05:49:04.910Z,20.75
2023-02-19T05:54:07.696Z,23.08
2023-02-19T05:59:21.255Z,21.48
2023-02-19T06:04:23.583Z,24.20
2023-02-19T06:09:25.295Z,22.27
2023-02-19T06:14:27.045Z,22.52
2023-02-19T06:19:28.673Z,23.90
2023-02-19T06:24:30.652Z,22.92
2023-02-19T06:29:32.855Z,21.40
2023-02-19T06:34:35.166Z,22.27
2023-02-19T06:39:37.072Z,21.65
2023-02-19T06:44:38.750Z,22.15
2023-02-19T06:49:40.803Z,20.08
2023-02-19T06:54:42.525Z,24.15
2023-02-19T06:59:44.635Z,26.92
2023-02-19T07:04:46.314Z,24.90
2023-02-19T07:09:48.050Z,23.25
2023-02-19T07:14:49.736Z,19.30
2023-02-19T07:19:51.341Z,17.98
2023-02-19T07:24:53.009Z,19.63
2023-02-19T07:29:54.690Z,28.08
2023-02-19T07:34:56.326Z,27.80
2023-02-19T07:39:58.005Z,30.20
2023-02-19T07:45:00.659Z,28.95
2023-02-19T07:50:02.457Z,22.65
2023-02-19T07:55:04.325Z,25.73
2023-02-19T08:00:06.513Z,25.88
2023-02-19T08:05:08.252Z,22.35
2023-02-19T08:10:28.455Z,32.03
2023-02-19T08:15:30.628Z,24.52
2023-02-19T08:20:32.330Z,24.90
2023-02-19T08:25:34.395Z,28.88
2023-02-19T08:30:38.431Z,27.02
2023-02-19T08:35:42.986Z,28.33
2023-02-19T08:40:44.642Z,31.60
2023-02-19T08:45:47.648Z,28.58
2023-02-19T08:50:57.594Z,27.75
2023-02-19T08:55:59.660Z,28.20
2023-02-19T09:01:01.333Z,26.40
2023-02-19T09:06:03.289Z,25.17
2023-02-19T09:11:07.194Z,24.27
2023-02-19T09:16:09.971Z,24.65
2023-02-19T09:21:11.912Z,20.23
2023-02-19T09:26:14.147Z,31.02
2023-02-19T09:31:17.059Z,30.35
2023-02-19T09:36:19.595Z,30.13
2023-02-19T09:41:47.437Z,29.65
2023-02-19T09:46:51.823Z,27.60
2023-02-19T09:52:12.334Z,26.17
2023-02-19T09:57:16.652Z,27.90
2023-02-19T10:02:25.797Z,21.25
2023-02-19T10:07:38.493Z,28.60
2023-02-19T10:12:46.151Z,28.08
2023-02-19T10:17:47.971Z,27.02
2023-02-19T10:22:49.902Z,27.80
2023-02-19T10:27:51.573Z,25.52
2023-02-19T10:33:14.618Z,30.33
2023-02-19T10:38:17.756Z,31.83
2023-02-19T10:43:32.060Z,31.40
2023-02-19T10:48:47.778Z,28.65
2023-02-19T10:53:52.206Z,24.60
2023-02-19T10:58:54.111Z,28.75
2023-02-19T11:04:17.714Z,21.05
2023-02-19T11:09:31.657Z,22.10
2023-02-19T11:14:35.111Z,20.13
2023-02-19T11:19:49.085Z,20.63
2023-02-19T11:24:55.892Z,20.88
2023-02-19T11:30:26.866Z,21.50
2023-02-19T11:35:31.500Z,20.85
2023-02-19T11:40:45.360Z,22.98
2023-02-19T11:46:03.775Z,24.25
2023-02-19T11:51:31.893Z,19.08
2023-02-19T11:56:37.287Z,19.17
2023-02-19T12:01:55.788Z,18.23
2023-02-19T12:07:35.110Z,15.63
2023-02-19T12:12:56.244Z,21.00
2023-02-19T12:18:26.862Z,17.45
2023-02-19T12:24:06.804Z,17.35
2023-02-19T12:29:22.033Z,18.60
2023-02-19T12:34:51.195Z,16.80
2023-02-19T12:39:59.234Z,16.77
2023-02-19T12:45:15.635Z,14.57
2023-02-19T12:50:24.003Z,12.23
2023-02-19T12:55:41.299Z,12.50
2023-02-19T13:00:50.588Z,10.10
2023-02-19T13:06:00.925Z,3.78
2023-02-19T13:11:09.574Z,1.13
2023-02-19T13:16:18.735Z,2.38
2023-02-19T13:21:43.378Z,2.15
2023-02-19T13:27:09.084Z,0.45
2023-02-19T13:32:27.774Z,0.05
2023-02-19T13:37:34.721Z,2.35
2023-02-19T13:42:37.462Z,1.55
2023-02-19T13:47:54.518Z,0.40
2023-02-19T13:53:02.105Z,0.00
2023-02-19T13:58:52.292Z,0.30
2023-02-19T14:04:07.277Z,1.10
2023-02-19T14:09:35.561Z,0.10
2023-02-19T14:14:39.548Z,0.75
2023-02-19T14:19:51.914Z,0.65
2023-02-19T14:24:55.218Z,6.60
2023-02-19T14:29:59.745Z,0.25
2023-02-19T14:35:02.096Z,0.35
2023-02-19T14:40:05.981Z,1.67
2023-02-19T14:45:09.027Z,0.50
2023-02-19T14:50:26.715Z,0.08
2023-02-19T14:55:40.040Z,1.95
2023-02-19T15:00:43.630Z,0.93
2023-02-19T15:05:47.748Z,0.10
2023-02-19T15:10:50.064Z,0.00
2023-02-19T15:15:53.618Z,0.30
2023-02-19T15:21:05.232Z,0.68
2023-02-19T15:26:22.942Z,0.77
2023-02-19T15:31:25.474Z,0.10
2023-02-19T15:36:35.107Z,0.32
2023-02-19T15:41:37.819Z,0.00
2023-02-19T15:46:43.761Z,0.10
2023-02-19T15:51:58.178Z,0.63
2023-02-19T15:57:06.562Z,2.63
2023-02-19T16:02:16.170Z,0.30
2023-02-19T16:07:32.672Z,2.08
2023-02-19T16:12:35.386Z,0.17
2023-02-19T16:17:42.879Z,0.13
2023-02-19T16:22:45.356Z,0.30
2023-02-19T16:27:47.746Z,0.80
2023-02-19T16:33:28.921Z,0.60
2023-02-19T16:38:31.478Z,0.38
2023-02-19T16:43:42.192Z,0.30
2023-02-19T16:48:46.017Z,0.10
2023-02-19T16:53:48.694Z,0.10
2023-02-19T16:58:52.482Z,0.50
2023-02-19T17:04:01.877Z,0.28
2023-02-19T17:09:06.484Z,0.30
2023-02-19T17:14:09.898Z,0.30
2023-02-19T17:19:21.915Z,0.52
2023-02-19T17:24:25.302Z,1.65
2023-02-19T17:29:29.124Z,1.35
2023-02-19T17:34:31.831Z,3.35
2023-02-19T17:39:34.312Z,1.02
2023-02-19T17:44:36.581Z,0.95
2023-02-19T17:49:40.029Z,0.98
2023-02-19T17:54:43.558Z,1.80
2023-02-19T17:59:47.324Z,1.65
2023-02-19T18:04:50.031Z,0.70
2023-02-19T18:09:52.616Z,0.20
2023-02-19T18:14:56.782Z,0.10
2023-02-19T18:20:01.902Z,0.10
2023-02-19T18:25:08.807Z,0.25
2023-02-19T18:30:13.035Z,0.00
2023-02-19T18:35:17.513Z,1.75
2023-02-19T18:40:28.030Z,0.10
2023-02-19T18:45:41.179Z,0.32
2023-02-19T18:50:44.881Z,0.35
2023-02-19T18:55:47.612Z,0.30
2023-02-19T19:00:50.267Z,0.22
2023-02-19T19:05:53.245Z,0.43
2023-02-19T19:10:56.758Z,1.17
2023-02-19T19:16:00.104Z,0.60
2023-02-19T19:21:05.304Z,0.73
2023-02-19T19:26:08.353Z,4.97
2023-02-19T19:31:13.204Z,1.20
2023-02-19T19:36:21.228Z,1.17
2023-02-19T19:41:24.223Z,1.48
2023-02-19T19:46:27.678Z,1.92
2023-02-19T19:51:34.723Z,4.40
2023-02-19T19:56:47.140Z,7.20
2023-02-19T20:01:54.711Z,5.68
2023-02-19T20:07:01.490Z,4.93
2023-02-19T20:12:05.201Z,4.05
2023-02-19T20:17:10.187Z,4.38
2023-02-19T20:22:14.301Z,6.15
2023-02-19T20:27:17.344Z,3.25
2023-02-19T20:32:21.252Z,7.85
2023-02-19T20:37:23.545Z,3.38
2023-02-19T20:42:26.138Z,3.90
2023-02-19T20:47:28.579Z,2.35
2023-02-19T20:52:31.285Z,4.22
2023-02-19T20:57:33.794Z,4.68
2023-02-19T21:02:37.055Z,4.55
2023-02-19T21:07:40.009Z,3.63
2023-02-19T21:12:42.243Z,4.15
2023-02-19T21:17:48.064Z,4.80
2023-02-19T21:22:50.556Z,6.33
2023-02-19T21:27:54.308Z,6.05
2023-02-19T21:32:56.198Z,6.72
2023-02-19T21:37:58.123Z,7.43
2023-02-19T21:43:00.630Z,5.20
2023-02-19T21:48:03.072Z,5.53
2023-02-19T21:53:05.764Z,5.90
2023-02-19T21:58:08.253Z,5.50
2023-02-19T22:03:15.559Z,6.05
2023-02-19T22:08:17.573Z,7.53
2023-02-19T22:13:19.195Z,7.43
2023-02-19T22:18:20.857Z,4.65
2023-02-19T22:23:22.542Z,6.60
2023-02-19T22:28:24.730Z,7.45
2023-02-19T22:33:26.373Z,5.50
2023-02-19T22:38:27.940Z,7.30
2023-02-19T22:43:29.568Z,4.07
2023-02-19T22:48:31.490Z,4.97
2023-02-19T22:53:33.184Z,5.35
2023-02-19T22:58:34.826Z,4.28
2023-02-19T23:03:45.933Z,4.78
2023-02-19T23:08:47.682Z,3.97
2023-02-19T23:13:49.509Z,4.82
2023-02-19T23:18:51.472Z,4.03
2023-02-19T23:23:53.359Z,5.63
2023-02-19T23:28:54.998Z,4.97
2023-02-19T23:33:56.709Z,11.15
2023-02-19T23:38:58.398Z,12.93
2023-02-19T23:44:00.019Z,12.00
2023-02-19T23:49:01.648Z,9.90
2023-02-19T23:54:03.511Z,9.88
2023-02-19T23:59:05.956Z,10.05
